Time;durP1;ratioP1;P1;durP2;ratioP2;P2;SDS_P1;SDS_P2;PMS_P1;PMS_P2;Temp;Humidity;BMP_temperature;BMP_pressure;BME280_temperature;BME280_humidity;BME280_pressure;Samples;Min_cycle;Max_cycle;Signal;HPM_P1;HPM_P2
2023/01/17 00:01:14;;;;;;;;;7.25;4.50;;;;;6.83;63.29;98464.53;5084435;27;45484;-68
2023/01/17 00:11:59;;;;;;;;;3.75;2.75;;;;;6.92;63.41;98446.88;5076815;27;45286;-70
2023/01/17 00:14:26;;;;;;;;;7.00;4.75;;;;;6.82;62.81;98422.06;5065504;28;45378;-72
2023/01/17 00:16:51;;;;;;;;;4.25;4.00;;;;;6.88;63.75;98443.31;5070828;28;45465;-71
2023/01/17 01:33:43;;;;;;;;;5.00;4.25;;;;;6.96;63.58;98409.72;5075154;27;45470;-71
2023/01/17 01:36:08;;;;;;;;;9.00;2.50;;;;;7.02;62.96;98403.53;5075886;27;45454;-69
2023/01/17 01:38:34;;;;;;;;;2.75;2.75;;;;;7.07;62.80;98403.56;5076446;28;45398;-70
2023/01/17 01:40:59;;;;;;;;;5.50;3.00;;;;;7.09;62.70;98399.13;5057519;28;45474;-69
2023/01/17 01:43:50;;;;;;;;;4.00;2.50;;;;;7.09;62.10;98401.78;5075655;28;45803;-69
2023/01/17 01:46:21;;;;;;;;;3.50;3.50;;;;;7.12;62.36;98417.72;5066136;28;45350;-67
2023/01/17 01:49:20;;;;;;;;;3.50;2.75;;;;;7.09;62.50;98393.81;5075963;28;45500;-71
2023/01/17 01:51:54;;;;;;;;;4.50;2.50;;;;;7.10;62.80;98388.50;5075857;28;45339;-70
2023/01/17 01:54:25;;;;;;;;;2.50;2.00;;;;;7.06;62.53;98376.13;5075355;28;45374;-71
2023/01/17 01:56:53;;;;;;;;;2.00;2.00;;;;;7.05;62.49;98382.31;5074744;28;45539;-72
2023/01/17 01:59:21;;;;;;;;;3.00;3.00;;;;;7.11;62.61;98374.38;5067542;28;45275;-68
2023/01/17 02:01:50;;;;;;;;;2.00;2.00;;;;;7.09;62.85;98377.88;5093275;27;45223;-68
2023/01/17 02:04:17;;;;;;;;;4.50;3.00;;;;;7.08;62.36;98378.75;5098521;28;46824;-71
2023/01/17 02:06:46;;;;;;;;;2.00;2.00;;;;;7.10;62.74;98374.34;5081442;28;45324;-69
2023/01/17 02:09:14;;;;;;;;;2.25;1.00;;;;;7.10;62.70;98361.09;5098312;28;44753;-70
2023/01/17 02:11:40;;;;;;;;;3.00;3.00;;;;;7.11;62.61;98361.09;5095138;28;45539;-70
2023/01/17 02:14:06;;;;;;;;;3.00;3.00;;;;;7.13;62.77;98361.09;5091143;28;46991;-65
2023/01/17 02:17:04;;;;;;;;;2.25;2.25;;;;;7.15;62.20;98354.00;5078412;28;45417;-68
2023/01/17 02:19:29;;;;;;;;;3.25;3.25;;;;;7.12;62.80;98346.03;5076920;28;45677;-72
2023/01/17 02:22:00;;;;;;;;;3.75;2.00;;;;;7.11;63.10;98349.56;5077985;27;45745;-69
2023/01/17 02:25:02;;;;;;;;;2.00;2.00;;;;;7.09;62.72;98341.59;5063219;28;46423;-69
2023/01/17 02:27:39;;;;;;;;;1.00;1.00;;;;;7.09;62.77;98346.03;5076136;27;45388;-68
2023/01/17 02:30:29;;;;;;;;;3.00;3.00;;;;;7.10;63.50;98332.75;5077144;28;45267;-71
2023/01/17 02:33:05;;;;;;;;;0.00;0.00;;;;;6.85;63.17;98280.50;5057675;28;45510;-69
2023/01/17 02:36:09;;;;;;;;;2.00;2.00;;;;;7.16;63.13;98322.16;5075459;28;46459;-71
2023/01/17 02:38:53;;;;;;;;;2.00;2.00;;;;;7.17;63.06;98325.69;5079955;27;45447;-72
2023/01/17 02:41:26;;;;;;;;;4.50;3.50;;;;;7.15;63.46;98309.75;5081986;28;45394;-67
2023/01/17 02:43:52;;;;;;;;;5.00;3.75;;;;;7.13;63.35;98300.03;5075989;28;45380;-69
2023/01/17 02:46:18;;;;;;;;;4.00;4.00;;;;;7.08;63.93;98297.34;5075216;28;46415;-68
2023/01/17 02:48:45;;;;;;;;;7.25;7.00;;;;;6.93;63.36;98273.44;5076268;27;45456;-69
2023/01/17 02:51:32;;;;;;;;;5.25;4.25;;;;;6.51;63.59;98193.78;5075686;28;45560;-70
2023/01/17 02:54:15;;;;;;;;;7.75;5.50;;;;;7.09;63.79;98288.50;5074955;28;45295;-69
2023/01/17 02:57:19;;;;;;;;;9.75;5.75;;;;;6.97;64.02;98265.47;5074312;28;45469;-71
2023/01/17 03:00:19;;;;;;;;;7.00;4.25;;;;;7.09;63.38;98275.22;5074418;28;45449;-68
2023/01/17 03:03:02;;;;;;;;;7.00;6.00;;;;;7.09;63.70;98266.38;5074222;28;45334;-70
2023/01/17 03:05:41;;;;;;;;;7.50;7.00;;;;;7.07;63.55;98262.84;5073402;28;46222;-67
2023/01/17 03:08:07;;;;;;;;;8.00;6.00;;;;;6.97;63.95;98256.63;5073360;28;45398;-71
2023/01/17 03:10:35;;;;;;;;;10.00;6.75;;;;;6.87;63.76;98250.44;5073421;27;45579;-70
2023/01/17 03:13:01;;;;;;;;;7.00;7.00;;;;;6.81;64.73;98250.41;5073718;28;45574;-68
2023/01/17 03:15:27;;;;;;;;;7.75;7.00;;;;;6.87;64.89;98245.13;5074410;28;45572;-72
2023/01/17 03:17:57;;;;;;;;;7.00;7.00;;;;;6.94;64.70;98236.28;5054785;28;46823;-70
2023/01/17 03:20:22;;;;;;;;;10.25;9.00;;;;;6.83;64.28;98222.13;5073990;28;45444;-70
2023/01/17 03:22:48;;;;;;;;;12.75;10.00;;;;;6.78;63.53;98226.53;5073388;28;45984;-69
2023/01/17 03:25:13;;;;;;;;;10.75;10.75;;;;;6.80;64.14;98233.63;5074607;28;45457;-69
2023/01/17 03:27:38;;;;;;;;;8.50;6.75;;;;;6.80;64.50;98228.31;5073699;27;45426;-70
2023/01/17 03:30:05;;;;;;;;;8.75;8.75;;;;;6.76;64.43;98233.63;5077637;28;45558;-68
2023/01/17 03:32:30;;;;;;;;;10.00;10.00;;;;;6.74;63.95;98233.59;5077466;28;45453;-66
2023/01/17 03:34:55;;;;;;;;;10.50;10.50;;;;;6.56;64.63;98204.41;5077769;28;45472;-70
2023/01/17 03:37:21;;;;;;;;;9.50;9.50;;;;;6.66;64.72;98215.94;5077586;28;46172;-65
2023/01/17 03:39:46;;;;;;;;;12.75;11.25;;;;;6.72;64.56;98216.81;5077659;28;45418;-68
2023/01/17 03:42:12;;;;;;;;;11.50;11.50;;;;;6.76;64.70;98220.34;5082143;28;45283;-69
2023/01/17 03:44:37;;;;;;;;;9.00;8.75;;;;;6.64;64.51;98192.03;5081215;28;45366;-69
2023/01/17 03:47:03;;;;;;;;;10.00;10.00;;;;;6.86;63.82;98229.19;5080105;28;45433;-69
2023/01/17 03:49:28;;;;;;;;;8.50;7.75;;;;;6.89;64.15;98218.59;5085465;27;45432;-67
2023/01/17 03:51:53;;;;;;;;;12.50;12.00;;;;;6.86;63.94;98206.19;5082288;28;45499;-64
2023/01/17 03:54:19;;;;;;;;;13.50;11.25;;;;;6.85;63.68;98190.25;5072151;28;45638;-70
2023/01/17 03:56:44;;;;;;;;;10.00;8.50;;;;;6.96;63.85;98207.97;5077231;28;46299;-69
2023/01/17 03:59:09;;;;;;;;;11.00;9.50;;;;;6.91;63.69;98201.75;5076362;27;45448;-70
2023/01/17 04:01:35;;;;;;;;;15.50;10.25;;;;;6.98;63.50;98219.47;5076457;28;45542;-70
2023/01/17 04:04:00;;;;;;;;;9.50;9.50;;;;;6.86;63.82;98206.19;5059749;28;45350;-71
2023/01/17 04:06:27;;;;;;;;;9.00;9.00;;;;;6.79;64.26;98204.44;5078043;27;46311;-72
2023/01/17 04:08:52;;;;;;;;;10.25;10.00;;;;;6.69;64.54;98179.66;5077438;28;45260;-67
2023/01/17 04:11:17;;;;;;;;;11.50;11.25;;;;;6.77;64.96;98193.81;5077176;28;45375;-67
2023/01/17 04:13:43;;;;;;;;;14.25;10.50;;;;;6.67;64.38;98176.13;5058384;28;45818;-70
2023/01/17 04:16:14;;;;;;;;;11.50;9.00;;;;;6.81;64.55;98192.03;5076114;28;45360;-69
2023/01/17 04:18:40;;;;;;;;;16.75;13.00;;;;;6.82;64.32;98197.34;5077400;28;45652;-68
2023/01/17 04:21:06;;;;;;;;;10.00;8.75;;;;;6.72;64.56;98181.44;5078652;28;45560;-70
2023/01/17 04:23:32;;;;;;;;;12.75;10.00;;;;;6.74;64.30;98185.84;5080374;28;45497;-72
2023/01/17 04:25:58;;;;;;;;;9.50;8.50;;;;;6.70;64.28;98184.09;5061102;28;46621;-69
2023/01/17 04:28:23;;;;;;;;;7.50;7.50;;;;;6.77;64.27;98191.16;5069745;27;45285;-71
2023/01/17 04:30:48;;;;;;;;;9.75;8.25;;;;;6.54;64.41;98151.34;5078697;28;45459;-70
2023/01/17 04:33:13;;;;;;;;;10.00;8.00;;;;;6.73;63.59;98176.13;5077743;28;55797;-71
2023/01/17 04:35:39;;;;;;;;;10.25;9.25;;;;;6.71;64.41;98185.84;5077919;28;45525;-68
2023/01/17 04:38:04;;;;;;;;;12.00;8.75;;;;;6.71;64.42;98187.63;5077952;28;45299;-69
2023/01/17 04:40:29;;;;;;;;;8.50;8.00;;;;;6.68;64.55;98182.31;5076648;28;45506;-71
2023/01/17 04:42:58;;;;;;;;;14.00;13.25;;;;;6.57;64.47;98169.06;5076285;28;45397;-66
2023/01/17 04:45:23;;;;;;;;;11.00;8.00;;;;;6.45;64.67;98157.56;5055821;28;47297;-69
2023/01/17 04:47:49;;;;;;;;;12.50;8.75;;;;;6.50;64.98;98167.25;5071402;28;45280;-72
2023/01/17 04:50:15;;;;;;;;;9.50;6.25;;;;;6.61;64.94;98170.81;5048738;28;45474;-69
2023/01/17 04:52:40;;;;;;;;;13.75;9.00;;;;;6.65;65.14;98167.28;5077971;28;45437;-70
2023/01/17 04:55:07;;;;;;;;;10.25;9.00;;;;;6.70;65.34;98167.25;5076332;28;46156;-70
2023/01/17 04:57:32;;;;;;;;;11.25;9.75;;;;;6.70;64.81;98159.31;5075584;28;45429;-71
2023/01/17 04:59:57;;;;;;;;;9.50;8.50;;;;;6.66;64.52;98154.91;5075333;28;54192;-70
2023/01/17 05:02:23;;;;;;;;;11.25;9.50;;;;;6.59;65.00;98131.00;5076982;28;45543;-69
2023/01/17 05:04:48;;;;;;;;;9.75;9.50;;;;;6.71;64.74;98150.47;5076779;28;45320;-70
2023/01/17 05:07:14;;;;;;;;;4.25;3.75;;;;;6.73;64.52;98146.94;5077019;28;45418;-68
2023/01/17 05:09:39;;;;;;;;;13.75;9.50;;;;;6.66;64.68;98141.63;5077032;28;45265;-70
2023/01/17 05:12:04;;;;;;;;;13.25;13.25;;;;;6.60;64.52;98147.81;5076940;27;45272;-71
2023/01/17 05:14:33;;;;;;;;;15.00;8.00;;;;;6.19;65.13;98099.19;5076925;28;46642;-70
2023/01/17 05:16:58;;;;;;;;;8.25;8.00;;;;;6.32;65.72;98128.34;5076292;28;45456;-69
2023/01/17 05:19:25;;;;;;;;;8.00;8.00;;;;;6.42;65.56;98138.97;5076452;28;45563;-72
2023/01/17 05:21:50;;;;;;;;;7.25;7.25;;;;;6.46;65.00;98131.91;5077381;28;45436;-71
2023/01/17 05:24:16;;;;;;;;;11.00;8.25;;;;;6.49;64.95;98123.94;5078329;28;46278;-73
2023/01/17 05:26:42;;;;;;;;;7.75;7.75;;;;;6.45;64.87;98119.50;5050643;28;45454;-72
2023/01/17 05:29:08;;;;;;;;;10.75;8.50;;;;;6.43;64.93;98119.53;5062945;28;45464;-72
2023/01/17 05:31:34;;;;;;;;;13.25;8.50;;;;;6.38;65.24;98115.97;5065266;28;45363;-71
2023/01/17 05:33:59;;;;;;;;;10.00;9.25;;;;;6.30;64.78;98099.16;5072638;28;45461;-70
2023/01/17 05:36:25;;;;;;;;;13.25;9.00;;;;;6.42;65.01;98120.41;5077224;28;45806;-67
2023/01/17 05:38:50;;;;;;;;;13.25;11.00;;;;;6.44;64.71;98118.63;5063031;28;45418;-70
2023/01/17 05:41:16;;;;;;;;;9.75;9.00;;;;;6.45;64.76;98119.50;5060564;28;45253;-68
2023/01/17 05:43:41;;;;;;;;;18.25;16.50;;;;;6.45;64.78;98122.16;5065192;28;45388;-66
2023/01/17 05:46:08;;;;;;;;;11.00;8.75;;;;;6.43;64.16;98103.63;5070364;28;45184;-65
2023/01/17 05:48:33;;;;;;;;;13.25;7.50;;;;;6.37;64.80;98087.72;5066193;28;45426;-62
2023/01/17 05:51:00;;;;;;;;;11.75;10.00;;;;;6.50;64.46;98101.84;5075599;28;45196;-70
2023/01/17 05:53:26;;;;;;;;;11.75;9.50;;;;;6.48;64.26;98102.72;5065095;28;45383;-67
2023/01/17 05:55:51;;;;;;;;;13.25;9.75;;;;;6.27;64.85;98085.94;5074875;28;45486;-66
2023/01/17 05:58:20;;;;;;;;;8.00;8.00;;;;;6.32;65.17;98102.75;5070678;28;45328;-71
2023/01/17 06:00:46;;;;;;;;;15.25;9.00;;;;;6.21;65.69;98078.84;5069242;28;45232;-65
2023/01/17 06:03:12;;;;;;;;;7.00;7.00;;;;;6.41;65.04;98108.03;5082993;28;45731;-66
2023/01/17 06:05:38;;;;;;;;;11.50;9.00;;;;;6.22;65.74;98071.78;5081823;28;45238;-63
2023/01/17 06:08:04;;;;;;;;;8.75;8.75;;;;;6.48;65.58;98097.41;5076828;28;45394;-65
2023/01/17 06:10:30;;;;;;;;;18.00;11.50;;;;;6.55;65.32;98093.88;5063214;28;44951;-65
2023/01/17 06:13:09;;;;;;;;;7.00;7.00;;;;;6.29;65.52;98039.09;5094073;27;45596;-70
2023/01/17 06:15:36;;;;;;;;;9.25;8.75;;;;;5.95;65.46;97971.91;5102028;27;45529;-70
2023/01/17 06:18:09;;;;;;;;;11.50;8.50;;;;;6.55;65.22;98070.91;5099192;27;46375;-71
2023/01/17 06:20:35;;;;;;;;;9.25;9.00;;;;;6.56;64.95;98062.03;5102393;27;45470;-69
2023/01/17 06:23:03;;;;;;;;;7.50;7.50;;;;;6.71;64.48;98085.00;5097009;27;45424;-68
2023/01/17 06:25:29;;;;;;;;;9.00;9.00;;;;;6.61;64.90;98080.63;5099893;27;45366;-72
2023/01/17 06:27:55;;;;;;;;;7.75;5.50;;;;;6.64;65.19;98083.28;5103335;27;45429;-73
2023/01/17 06:30:20;;;;;;;;;11.00;9.75;;;;;6.69;65.49;98088.56;5095166;27;45292;-67
2023/01/17 06:32:53;;;;;;;;;9.75;8.50;;;;;6.68;65.11;98087.66;5099167;27;46118;-68
2023/01/17 06:35:19;;;;;;;;;8.50;6.50;;;;;6.66;65.53;98088.56;5078094;27;45752;-67
2023/01/17 06:37:45;;;;;;;;;7.25;7.25;;;;;6.70;65.34;98091.22;5066629;27;45595;-72
2023/01/17 06:40:11;;;;;;;;;13.00;10.50;;;;;6.78;65.03;98084.16;5098869;27;45473;-68
2023/01/17 06:42:36;;;;;;;;;13.25;9.50;;;;;6.87;64.44;98080.59;5084264;27;46410;-71
2023/01/17 06:45:02;;;;;;;;;11.75;9.50;;;;;6.92;64.77;98080.56;5111778;27;45197;-71
2023/01/17 06:47:27;;;;;;;;;10.00;8.25;;;;;6.97;65.66;98081.44;5111317;27;45223;-68
2023/01/17 06:49:52;;;;;;;;;13.50;12.00;;;;;6.95;64.56;98072.63;5112964;27;44960;-71
2023/01/17 06:52:18;;;;;;;;;10.50;10.00;;;;;6.83;65.26;98053.16;5099004;27;45488;-72
2023/01/17 06:54:43;;;;;;;;;8.25;8.25;;;;;6.94;65.16;98084.09;5113576;27;45248;-73
2023/01/17 06:57:09;;;;;;;;;9.75;9.75;;;;;6.93;64.45;98084.97;5112016;27;44992;-67
2023/01/17 06:59:34;;;;;;;;;13.25;9.50;;;;;6.90;64.85;98080.56;5111234;27;45040;-70
2023/01/17 07:02:00;;;;;;;;;15.75;12.25;;;;;6.93;64.72;98074.38;5099255;27;45215;-70
2023/01/17 07:04:25;;;;;;;;;13.00;10.25;;;;;6.94;64.96;98073.50;5114675;27;45068;-71
2023/01/17 07:06:50;;;;;;;;;10.00;10.00;;;;;6.97;64.47;98078.78;5096580;27;44979;-70
2023/01/17 07:09:16;;;;;;;;;31.25;28.00;;;;;6.97;64.49;98076.13;5113930;27;57263;-69
2023/01/17 07:11:41;;;;;;;;;12.00;11.25;;;;;6.97;64.84;98076.13;5112130;27;45673;-71
2023/01/17 07:14:11;;;;;;;;;16.00;14.50;;;;;6.99;64.38;98085.84;5113094;27;45013;-73
2023/01/17 07:16:36;;;;;;;;;12.00;10.00;;;;;6.93;64.54;98087.63;5100004;27;45180;-69
2023/01/17 07:19:02;;;;;;;;;11.50;8.25;;;;;6.64;64.32;98062.91;5099000;27;47319;-68
2023/01/17 07:21:27;;;;;;;;;14.25;9.25;;;;;6.85;64.85;98092.97;5099735;27;45754;-72
2023/01/17 07:23:52;;;;;;;;;14.25;10.25;;;;;6.77;64.86;98063.78;5106900;27;45379;-72
2023/01/17 07:26:18;;;;;;;;;11.50;7.25;;;;;6.99;64.58;98087.63;5098088;27;45289;-69
2023/01/17 07:28:44;;;;;;;;;13.25;11.00;;;;;7.00;63.86;98092.06;5080536;27;44820;-73
2023/01/17 07:31:09;;;;;;;;;12.25;12.25;;;;;7.01;64.33;98086.75;5090626;27;46057;-68
2023/01/17 07:33:34;;;;;;;;;13.00;13.00;;;;;6.87;63.68;98061.13;5099701;27;45484;-71
2023/01/17 07:36:06;;;;;;;;;14.75;11.00;;;;;6.67;63.73;98026.69;5100351;27;45291;-69
2023/01/17 07:38:31;;;;;;;;;11.00;10.00;;;;;6.96;63.66;98082.31;5099454;27;45610;-69
2023/01/17 07:40:58;;;;;;;;;11.25;11.25;;;;;6.96;63.19;98077.91;5098906;27;45660;-70
2023/01/17 07:43:24;;;;;;;;;12.75;11.50;;;;;6.98;63.34;98080.56;5080615;27;45364;-74
2023/01/17 07:45:50;;;;;;;;;15.75;14.25;;;;;7.00;63.27;98084.09;5080650;27;45512;-70
2023/01/17 07:48:18;;;;;;;;;17.50;15.00;;;;;6.98;63.73;98073.47;5098488;27;45467;-71
2023/01/17 07:50:43;;;;;;;;;20.75;15.75;;;;;7.03;62.80;98084.09;5099647;27;45511;-72
2023/01/17 07:53:09;;;;;;;;;18.25;17.00;;;;;7.05;62.78;98081.44;5099101;27;45353;-70
2023/01/17 07:55:34;;;;;;;;;21.75;20.00;;;;;7.04;62.90;98083.19;5079958;27;45370;-71
2023/01/17 07:57:59;;;;;;;;;18.25;17.50;;;;;7.06;63.17;98081.44;5102216;27;45299;-69
2023/01/17 08:00:26;;;;;;;;;16.00;13.50;;;;;7.05;62.77;98089.41;5082189;27;46955;-67
2023/01/17 08:03:00;;;;;;;;;22.00;15.75;;;;;6.91;62.89;98062.88;5100262;27;45366;-73
2023/01/17 08:05:26;;;;;;;;;19.50;17.25;;;;;7.04;62.74;98082.31;5100006;27;45410;-69
2023/01/17 08:07:51;;;;;;;;;20.75;16.75;;;;;7.08;63.29;98090.28;5110294;27;45290;-67
2023/01/17 08:10:17;;;;;;;;;17.50;17.25;;;;;6.99;62.83;98079.66;5104365;27;46253;-71
2023/01/17 08:12:47;;;;;;;;;18.25;15.75;;;;;7.11;63.21;98094.66;5102036;27;45440;-74
2023/01/17 08:15:14;;;;;;;;;18.25;17.00;;;;;7.13;62.90;98099.09;5099390;27;45435;-68
2023/01/17 08:17:47;;;;;;;;;23.25;17.00;;;;;7.08;62.46;98100.91;5098299;27;45441;-70
2023/01/17 08:20:14;;;;;;;;;21.00;16.50;;;;;6.80;62.67;98054.94;5064416;27;47997;-72
2023/01/17 08:22:40;;;;;;;;;21.75;21.75;;;;;6.99;62.95;98096.47;5099026;27;45431;-72
2023/01/17 08:25:06;;;;;;;;;33.50;29.50;;;;;6.99;63.24;98101.78;5099172;27;44803;-72
2023/01/17 08:27:31;;;;;;;;;22.50;21.25;;;;;6.93;63.05;98098.25;5079904;27;45517;-71
2023/01/17 08:29:57;;;;;;;;;26.75;23.00;;;;;6.67;63.40;98053.22;5098657;27;46146;-73
2023/01/17 08:32:23;;;;;;;;;28.75;20.50;;;;;6.89;62.98;98094.72;5096140;27;45288;-73
2023/01/17 08:34:48;;;;;;;;;22.75;20.50;;;;;6.70;62.62;98064.69;5116405;27;45067;-73
2023/01/17 08:37:14;;;;;;;;;24.75;21.00;;;;;6.92;63.06;98102.69;5097522;27;45066;-71
2023/01/17 08:39:39;;;;;;;;;20.75;17.00;;;;;6.89;62.87;98107.13;5115520;27;45727;-73
2023/01/17 08:42:05;;;;;;;;;20.25;16.75;;;;;6.85;62.90;98100.03;5114315;27;44972;-75
2023/01/17 08:44:30;;;;;;;;;21.25;17.25;;;;;6.85;63.80;98108.91;5115078;27;44954;-74
2023/01/17 08:46:55;;;;;;;;;25.00;18.25;;;;;6.89;63.60;98099.16;5107958;27;45273;-71
2023/01/17 08:49:21;;;;;;;;;21.25;14.00;;;;;6.87;63.29;98099.16;5113876;27;45537;-68
2023/01/17 08:51:46;;;;;;;;;21.75;18.75;;;;;6.89;63.42;98097.38;5112701;27;45181;-65
2023/01/17 08:54:13;;;;;;;;;33.50;23.25;;;;;6.90;63.74;98103.59;5091270;27;45511;-65
2023/01/17 08:56:41;;;;;;;;;16.75;16.75;;;;;6.85;63.47;98092.06;5075689;27;45604;-68
2023/01/17 08:59:09;;;;;;;;;26.25;18.50;;;;;6.93;63.35;98091.19;5080504;27;47239;-67
2023/01/17 09:01:39;;;;;;;;;22.50;20.75;;;;;7.00;63.88;98094.72;5100908;27;45561;-70
2023/01/17 09:04:05;;;;;;;;;26.00;23.75;;;;;6.98;63.23;98086.75;5105765;27;45400;-71
2023/01/17 09:06:30;;;;;;;;;29.25;17.00;;;;;7.02;62.98;98092.94;5097089;27;45386;-76
2023/01/17 09:08:57;;;;;;;;;19.50;16.75;;;;;6.97;63.05;98086.75;5108277;27;46032;-73
2023/01/17 09:11:23;;;;;;;;;26.75;21.25;;;;;6.97;63.16;98078.78;5087242;27;46048;-67
2023/01/17 09:13:48;;;;;;;;;19.50;17.00;;;;;7.00;62.97;98082.31;5097940;28;45206;-72
2023/01/17 09:16:13;;;;;;;;;27.75;21.25;;;;;7.04;62.82;98080.53;5082077;28;45533;-71
2023/01/17 09:18:39;;;;;;;;;23.50;21.00;;;;;6.93;63.05;98058.44;5065236;28;45907;-76
2023/01/17 09:21:14;;;;;;;;;30.75;26.75;;;;;7.10;63.53;98080.53;5084288;28;45537;-75
2023/01/17 09:23:40;;;;;;;;;28.00;20.50;;;;;7.11;62.67;98090.28;5079497;28;44823;-75
2023/01/17 09:26:06;;;;;;;;;22.75;19.50;;;;;6.98;62.54;98059.34;5086317;28;45341;-72
2023/01/17 09:28:39;;;;;;;;;26.50;19.00;;;;;7.13;62.49;98083.19;5085684;28;45557;-70
2023/01/17 09:31:08;;;;;;;;;18.00;17.00;;;;;7.13;62.65;98088.47;5081994;28;45796;-70
2023/01/17 09:33:34;;;;;;;;;25.00;21.25;;;;;7.13;62.63;98082.31;5086563;28;45417;-66
2023/01/17 09:36:03;;;;;;;;;22.75;18.00;;;;;7.19;63.29;98087.56;5085781;28;45247;-74
2023/01/17 09:38:28;;;;;;;;;18.00;17.25;;;;;7.26;62.69;98088.44;5085071;28;45529;-73
2023/01/17 09:40:53;;;;;;;;;21.50;16.00;;;;;7.14;62.57;98066.38;5056719;28;45394;-71
2023/01/17 09:43:31;;;;;;;;;18.50;14.00;;;;;7.31;62.68;98094.59;5081440;28;45200;-72
2023/01/17 09:45:56;;;;;;;;;21.00;16.75;;;;;7.34;61.98;98098.16;5066128;28;44910;-75
2023/01/17 09:48:36;;;;;;;;;15.00;12.00;;;;;7.37;61.93;98100.81;5053294;28;45358;-73
2023/01/17 09:51:10;;;;;;;;;18.25;15.75;;;;;7.38;62.06;98099.03;5075941;28;45499;-76
2023/01/17 09:53:38;;;;;;;;;27.50;23.50;;;;;7.44;62.35;98108.72;5040755;28;45544;-72
2023/01/17 09:56:13;;;;;;;;;20.00;15.75;;;;;7.46;62.22;98104.31;5058880;28;45439;-71
2023/01/17 09:59:15;;;;;;;;;17.75;17.00;;;;;7.50;62.17;98104.28;5077410;28;45536;-71
2023/01/17 10:01:59;;;;;;;;;15.50;15.25;;;;;7.54;62.23;98114.03;5076254;28;45287;-69
2023/01/17 10:04:37;;;;;;;;;22.25;14.50;;;;;7.52;62.11;98101.63;5069236;28;45311;-73
2023/01/17 10:07:14;;;;;;;;;12.75;11.50;;;;;7.61;61.94;98116.66;5077283;28;45364;-69
2023/01/17 10:10:26;;;;;;;;;18.75;16.00;;;;;7.49;62.05;98105.19;5062543;28;46194;-75
2023/01/17 10:13:24;;;;;;;;;30.50;25.00;;;;;7.69;61.52;98128.16;5051636;28;45459;-71
2023/01/17 10:16:09;;;;;;;;;28.75;27.00;;;;;7.73;62.25;98128.09;5041017;28;45430;-74
2023/01/17 10:18:41;;;;;;;;;22.50;19.75;;;;;7.72;61.92;98129.00;5075268;28;45569;-66
2023/01/17 10:21:19;;;;;;;;;18.25;12.50;;;;;7.73;61.22;98122.78;5074144;28;45449;-67
2023/01/17 10:23:47;;;;;;;;;28.50;25.50;;;;;7.69;61.70;98122.81;5073737;28;46298;-66
2023/01/17 10:26:16;;;;;;;;;24.25;21.25;;;;;7.71;61.87;98129.00;5061942;28;45609;-65
2023/01/17 10:28:51;;;;;;;;;20.75;17.00;;;;;7.77;61.88;98123.69;5065447;28;45641;-67
2023/01/17 10:31:26;;;;;;;;;24.25;18.75;;;;;7.79;61.65;98126.28;5062275;28;46382;-66
2023/01/17 10:33:57;;;;;;;;;18.25;16.25;;;;;7.82;60.81;98121.88;5062181;28;45562;-66
2023/01/17 10:36:28;;;;;;;;;13.50;12.50;;;;;7.74;61.99;98099.75;5068645;28;45522;-68
2023/01/17 10:38:58;;;;;;;;;18.25;15.50;;;;;7.92;61.73;98122.72;5053911;28;45378;-68
2023/01/17 10:41:34;;;;;;;;;17.00;13.25;;;;;7.82;61.28;98094.38;5064105;28;45594;-67
2023/01/17 10:44:14;;;;;;;;;17.00;16.00;;;;;7.97;61.15;98122.66;5052417;28;45526;-67
2023/01/17 10:47:11;;;;;;;;;22.75;19.75;;;;;7.96;61.99;98111.16;5056255;28;45500;-66
2023/01/17 10:49:45;;;;;;;;;18.25;14.00;;;;;8.02;61.35;98116.44;5045458;28;45355;-67
2023/01/17 10:52:20;;;;;;;;;11.75;9.75;;;;;7.68;61.30;98057.28;5074381;28;45319;-64
2023/01/17 10:54:55;;;;;;;;;35.75;20.75;;;;;8.01;61.58;98108.47;5053712;28;45563;-67
2023/01/17 10:57:23;;;;;;;;;7.25;7.25;;;;;7.99;61.05;98110.25;5069372;27;45471;-69
2023/01/17 10:59:49;;;;;;;;;15.25;11.25;;;;;7.97;60.95;98098.72;5062532;28;45583;-69
2023/01/17 11:02:26;;;;;;;;;12.00;8.75;;;;;8.04;61.16;98105.81;5073655;28;45711;-66
2023/01/17 11:04:54;;;;;;;;;11.25;8.25;;;;;7.98;60.61;98098.72;5083498;28;45464;-67
2023/01/17 11:07:19;;;;;;;;;12.50;10.25;;;;;8.00;60.22;98093.41;5054835;28;45507;-68
2023/01/17 11:09:49;;;;;;;;;13.00;10.00;;;;;7.70;60.67;98027.13;5051350;28;45590;-66
2023/01/17 11:12:20;;;;;;;;;9.75;9.75;;;;;8.02;61.10;98083.63;5082769;27;46451;-66
2023/01/17 11:14:57;;;;;;;;;11.50;11.50;;;;;7.82;60.68;98044.78;5090936;27;45552;-65
2023/01/17 11:17:24;;;;;;;;;20.00;11.25;;;;;7.83;60.48;98037.69;5089050;27;45270;-63
2023/01/17 11:19:50;;;;;;;;;14.50;11.75;;;;;8.12;60.79;98094.22;5091127;27;44913;-65
2023/01/17 11:22:16;;;;;;;;;17.50;11.50;;;;;8.13;60.41;98081.78;5070859;27;45516;-66
2023/01/17 11:24:52;;;;;;;;;11.25;11.25;;;;;8.10;60.71;98073.81;5093752;27;45511;-65
2023/01/17 11:27:55;;;;;;;;;19.50;16.75;;;;;8.22;60.77;98078.19;5091167;27;45496;-63
2023/01/17 11:30:24;;;;;;;;;11.75;11.50;;;;;8.07;60.86;98037.53;5091587;27;45382;-65
2023/01/17 11:33:03;;;;;;;;;17.25;14.25;;;;;8.20;59.85;98067.56;5080912;27;47163;-69
2023/01/17 11:35:35;;;;;;;;;18.50;13.75;;;;;8.28;60.46;98086.13;5094213;27;45686;-68
2023/01/17 11:38:18;;;;;;;;;14.00;12.50;;;;;8.24;59.38;98065.78;5093870;27;45544;-62
2023/01/17 11:40:45;;;;;;;;;13.00;12.50;;;;;8.16;59.65;98060.50;5087660;27;45536;-65
2023/01/17 11:43:11;;;;;;;;;13.75;13.75;;;;;8.18;59.80;98079.97;5091939;27;45990;-66
2023/01/17 11:45:38;;;;;;;;;11.00;11.00;;;;;8.19;60.21;98080.88;5088269;27;45388;-68
2023/01/17 11:48:12;;;;;;;;;16.50;10.75;;;;;8.23;60.32;98079.94;5089648;27;45460;-67
2023/01/17 11:50:52;;;;;;;;;10.25;9.00;;;;;8.17;60.37;98070.25;5084428;27;45557;-68
2023/01/17 11:53:25;;;;;;;;;11.00;10.00;;;;;8.23;60.02;98070.22;5094643;27;45680;-66
2023/01/17 11:56:17;;;;;;;;;18.75;13.75;;;;;8.27;59.55;98063.09;5094615;27;45829;-66
2023/01/17 11:58:44;;;;;;;;;17.75;12.00;;;;;8.26;60.36;98064.84;5094412;27;45594;-67
2023/01/17 12:01:34;;;;;;;;;19.00;11.75;;;;;8.20;59.94;98059.59;5096146;27;45464;-66
2023/01/17 12:04:23;;;;;;;;;18.25;14.50;;;;;8.11;60.04;98044.56;5094336;27;46570;-66
2023/01/17 12:07:07;;;;;;;;;16.25;13.25;;;;;8.14;59.52;98054.31;5073711;27;45343;-67
2023/01/17 12:09:46;;;;;;;;;14.25;11.00;;;;;8.11;60.80;98051.66;5093567;27;45496;-66
2023/01/17 12:15:37;;;;;;;;;13.25;12.75;;;;;8.11;59.75;98049.00;5086783;27;45429;-65
2023/01/17 12:18:20;;;;;;;;;21.75;16.25;;;;;8.08;59.95;98041.97;5096783;27;45440;-68
2023/01/17 12:21:14;;;;;;;;;11.50;11.50;;;;;7.99;60.99;98052.66;5097568;27;45489;-66
2023/01/17 12:24:05;;;;;;;;;10.75;7.25;;;;;7.97;60.07;98049.13;5099775;27;45548;-65
2023/01/17 12:27:15;;;;;;;;;10.50;10.25;;;;;7.96;59.70;98051.78;5092557;27;45586;-68
2023/01/17 12:29:59;;;;;;;;;12.00;9.75;;;;;7.95;60.49;98050.88;5079442;28;45563;-66
2023/01/17 12:32:42;;;;;;;;;13.00;10.75;;;;;7.92;60.77;98050.94;5094109;27;45488;-66
2023/01/17 12:35:21;;;;;;;;;9.50;9.50;;;;;7.90;60.95;98050.94;5097432;27;45687;-65
2023/01/17 12:37:54;;;;;;;;;18.00;11.00;;;;;7.86;59.97;98037.69;5084455;27;46839;-66
2023/01/17 12:40:29;;;;;;;;;17.50;14.00;;;;;7.84;60.65;98055.41;5079029;27;45508;-64
2023/01/17 12:43:01;;;;;;;;;11.25;8.25;;;;;7.84;60.46;98050.09;5078873;27;45385;-63
2023/01/17 12:45:33;;;;;;;;;19.75;17.25;;;;;7.82;59.84;98043.88;5093132;27;45664;-68
2023/01/17 12:48:09;;;;;;;;;12.00;9.25;;;;;7.61;60.73;98002.41;5097920;27;46412;-67
2023/01/17 12:50:51;;;;;;;;;15.75;12.50;;;;;7.87;60.88;98042.06;5097930;27;45373;-65
2023/01/17 12:53:36;;;;;;;;;10.25;10.00;;;;;7.46;60.29;97975.03;5084601;27;45303;-67
2023/01/17 12:56:15;;;;;;;;;11.75;10.50;;;;;7.79;60.04;98030.59;5100161;27;45746;-69
2023/01/17 12:58:46;;;;;;;;;13.25;11.00;;;;;7.63;60.39;97993.50;5096907;27;45686;-67
2023/01/17 13:01:29;;;;;;;;;12.50;9.50;;;;;7.84;60.63;98037.69;5094899;27;45411;-68
2023/01/17 13:04:06;;;;;;;;;19.25;14.00;;;;;7.86;60.67;98040.34;5097127;27;45418;-67
2023/01/17 13:06:47;;;;;;;;;16.00;10.00;;;;;7.86;60.99;98032.34;5098138;27;45400;-68
2023/01/17 13:09:17;;;;;;;;;9.00;9.00;;;;;7.93;59.79;98039.38;5097618;27;45432;-69
2023/01/17 13:11:49;;;;;;;;;13.25;10.75;;;;;7.94;59.93;98042.03;5099138;27;45553;-67
2023/01/17 13:14:15;;;;;;;;;11.75;9.25;;;;;7.72;60.15;98011.16;5094505;27;45551;-66